Gizan, Saudi Arabia
Current Conditions -  °F | °C
As of 11:00 PM on Friday 31 Oct 2014 (Local Time) from OEGN Reporting Station
Clear Clear  
Wind Chill: 84°   Ceiling: Unl
Heat Index: 90°   Visibility: 6mi
Dew Point: 72°   Wind: 5mph
Humidity: 66%   Direction: 350°N
Pressure: 29.83"   Gusts: NA
Location:  16.89°N, 42.55°E
Report Text: OEGN 312000Z 35004KT CAVOK 29/22 Q1010 NOSIG
Loading
Personal Weather Stations






























Interactive Weather Map
Tropical Storm Tracking
New forecast layout! Learn more

10-Day Weather Forecast

Advertisements
Track Severe Weather on mobile